<?xml version="1.0" encoding="UTF-8" standalone="no" ?>
<gpx xmlns="http://www.topografix.com/GPX/1/1" xmlns:xsi="http://www.w3.org/2001/XMLSchema-instance" xsi:schemaLocation="http://www.topografix.com/GPX/1/1 http://www.topografix.com/GPX/1/1/gpx.xsd" version="1.1" creator="VisuGPX - https://www.visugpx.com">
  <metadata>
    <name>11367187-Roybon/St laurent en royans</name>
    <desc><![CDATA[La Route des Mulets ®
Grand Itinéraire EquiLiberté : du Poitou/Charente à l'Italie]]></desc>
  </metadata>
  <trk>
    <name><![CDATA[11367187-Roybon/St laurent en royans]]></name>
    <trkseg>
      <trkpt lat="45.2579" lon="5.24159">
        <ele>504</ele>
        <time>2020-09-05T13:21:53Z</time>
      </trkpt>
      <trkpt lat="45.25481" lon="5.24452">
        <ele>508</ele>
        <time>2020-09-05T13:30:09Z</time>
      </trkpt>
      <trkpt lat="45.24985" lon="5.24577">
        <ele>534</ele>
        <time>2020-09-05T13:41:21Z</time>
      </trkpt>
      <trkpt lat="45.24819" lon="5.24514">
        <ele>553</ele>
        <time>2020-09-05T13:45:10Z</time>
      </trkpt>
      <trkpt lat="45.24665" lon="5.2456">
        <ele>565</ele>
        <time>2020-09-05T13:48:40Z</time>
      </trkpt>
      <trkpt lat="45.24363" lon="5.24491">
        <ele>592</ele>
        <time>2020-09-05T13:55:28Z</time>
      </trkpt>
      <trkpt lat="45.2409" lon="5.23707">
        <ele>631</ele>
        <time>2020-09-05T14:09:10Z</time>
      </trkpt>
      <trkpt lat="45.23673" lon="5.23154">
        <ele>630</ele>
        <time>2020-09-05T14:21:52Z</time>
      </trkpt>
      <trkpt lat="45.23468" lon="5.23161">
        <ele>628</ele>
        <time>2020-09-05T14:26:25Z</time>
      </trkpt>
      <trkpt lat="45.23228" lon="5.23281">
        <ele>627</ele>
        <time>2020-09-05T14:32:05Z</time>
      </trkpt>
      <trkpt lat="45.23228" lon="5.23057">
        <ele>627</ele>
        <time>2020-09-05T14:35:35Z</time>
      </trkpt>
      <trkpt lat="45.22149" lon="5.2249">
        <ele>630</ele>
        <time>2020-09-05T15:01:11Z</time>
      </trkpt>
      <trkpt lat="45.21736" lon="5.22868">
        <ele>626</ele>
        <time>2020-09-05T15:12:06Z</time>
      </trkpt>
      <trkpt lat="45.21272" lon="5.23758">
        <ele>627</ele>
        <time>2020-09-05T15:29:27Z</time>
      </trkpt>
      <trkpt lat="45.21099" lon="5.23873">
        <ele>629</ele>
        <time>2020-09-05T15:33:42Z</time>
      </trkpt>
      <trkpt lat="45.21092" lon="5.24235">
        <ele>624</ele>
        <time>2020-09-05T15:39:23Z</time>
      </trkpt>
      <trkpt lat="45.21089" lon="5.24621">
        <ele>617</ele>
        <time>2020-09-05T15:45:26Z</time>
      </trkpt>
      <trkpt lat="45.20733" lon="5.25072">
        <ele>630</ele>
        <time>2020-09-05T15:56:02Z</time>
      </trkpt>
      <trkpt lat="45.20312" lon="5.24432">
        <ele>611</ele>
        <time>2020-09-05T16:09:46Z</time>
      </trkpt>
      <trkpt lat="45.20186" lon="5.24358">
        <ele>602</ele>
        <time>2020-09-05T16:12:48Z</time>
      </trkpt>
      <trkpt lat="45.20323" lon="5.24409">
        <ele>608</ele>
        <time>2020-09-05T16:15:57Z</time>
      </trkpt>
      <trkpt lat="45.20168" lon="5.24335">
        <ele>600</ele>
        <time>2020-09-05T16:19:35Z</time>
      </trkpt>
      <trkpt lat="45.202" lon="5.23526">
        <ele>541</ele>
        <time>2020-09-05T16:32:17Z</time>
      </trkpt>
      <trkpt lat="45.20305" lon="5.23393">
        <ele>528</ele>
        <time>2020-09-05T16:35:25Z</time>
      </trkpt>
      <trkpt lat="45.20111" lon="5.23273">
        <ele>528</ele>
        <time>2020-09-05T16:40:07Z</time>
      </trkpt>
      <trkpt lat="45.19985" lon="5.23072">
        <ele>522</ele>
        <time>2020-09-05T16:44:20Z</time>
      </trkpt>
      <trkpt lat="45.19956" lon="5.22934">
        <ele>509</ele>
        <time>2020-09-05T16:46:35Z</time>
      </trkpt>
      <trkpt lat="45.19488" lon="5.22901">
        <ele>470</ele>
        <time>2020-09-05T16:57:01Z</time>
      </trkpt>
      <trkpt lat="45.19373" lon="5.22763">
        <ele>479</ele>
        <time>2020-09-05T17:00:22Z</time>
      </trkpt>
      <trkpt lat="45.19057" lon="5.22638">
        <ele>484</ele>
        <time>2020-09-05T17:07:39Z</time>
      </trkpt>
      <trkpt lat="45.18938" lon="5.22712">
        <ele>496</ele>
        <time>2020-09-05T17:10:33Z</time>
      </trkpt>
      <trkpt lat="45.18589" lon="5.22712">
        <ele>474</ele>
        <time>2020-09-05T17:18:18Z</time>
      </trkpt>
      <trkpt lat="45.18417" lon="5.22521">
        <ele>447</ele>
        <time>2020-09-05T17:23:10Z</time>
      </trkpt>
      <trkpt lat="45.18082" lon="5.22465">
        <ele>441</ele>
        <time>2020-09-05T17:30:40Z</time>
      </trkpt>
      <trkpt lat="45.17654" lon="5.2152">
        <ele>366</ele>
        <time>2020-09-05T17:48:17Z</time>
      </trkpt>
      <trkpt lat="45.17345" lon="5.21799">
        <ele>355</ele>
        <time>2020-09-05T17:56:25Z</time>
      </trkpt>
      <trkpt lat="45.17193" lon="5.21684">
        <ele>385</ele>
        <time>2020-09-05T18:00:15Z</time>
      </trkpt>
      <trkpt lat="45.17096" lon="5.21898">
        <ele>372</ele>
        <time>2020-09-05T18:04:15Z</time>
      </trkpt>
      <trkpt lat="45.16665" lon="5.21878">
        <ele>366</ele>
        <time>2020-09-05T18:13:50Z</time>
      </trkpt>
      <trkpt lat="45.17098" lon="5.21758">
        <ele>380</ele>
        <time>2020-09-05T18:23:39Z</time>
      </trkpt>
      <trkpt lat="45.17346" lon="5.21934">
        <ele>356</ele>
        <time>2020-09-05T18:29:49Z</time>
      </trkpt>
      <trkpt lat="45.17339" lon="5.22957">
        <ele>391</ele>
        <time>2020-09-05T18:45:51Z</time>
      </trkpt>
      <trkpt lat="45.16967" lon="5.23042">
        <ele>373</ele>
        <time>2020-09-05T18:54:14Z</time>
      </trkpt>
      <trkpt lat="45.16663" lon="5.23007">
        <ele>367</ele>
        <time>2020-09-05T19:01:01Z</time>
      </trkpt>
      <trkpt lat="45.16124" lon="5.23104">
        <ele>345</ele>
        <time>2020-09-05T19:13:06Z</time>
      </trkpt>
      <trkpt lat="45.15906" lon="5.23048">
        <ele>331</ele>
        <time>2020-09-05T19:18:02Z</time>
      </trkpt>
      <trkpt lat="45.15979" lon="5.22788">
        <ele>325</ele>
        <time>2020-09-05T19:22:25Z</time>
      </trkpt>
      <trkpt lat="45.15981" lon="5.2257">
        <ele>337</ele>
        <time>2020-09-05T19:25:50Z</time>
      </trkpt>
      <trkpt lat="45.1606" lon="5.2245">
        <ele>329</ele>
        <time>2020-09-05T19:28:25Z</time>
      </trkpt>
      <trkpt lat="45.15748" lon="5.22292">
        <ele>321</ele>
        <time>2020-09-05T19:35:47Z</time>
      </trkpt>
      <trkpt lat="45.15741" lon="5.22118">
        <ele>334</ele>
        <time>2020-09-05T19:38:31Z</time>
      </trkpt>
      <trkpt lat="45.15651" lon="5.22033">
        <ele>351</ele>
        <time>2020-09-05T19:40:55Z</time>
      </trkpt>
      <trkpt lat="45.15525" lon="5.2199">
        <ele>366</ele>
        <time>2020-09-05T19:43:48Z</time>
      </trkpt>
      <trkpt lat="45.15448" lon="5.2218">
        <ele>380</ele>
        <time>2020-09-05T19:47:14Z</time>
      </trkpt>
      <trkpt lat="45.1533" lon="5.22288">
        <ele>394</ele>
        <time>2020-09-05T19:50:22Z</time>
      </trkpt>
      <trkpt lat="45.15213" lon="5.22559">
        <ele>399</ele>
        <time>2020-09-05T19:55:21Z</time>
      </trkpt>
      <trkpt lat="45.1515" lon="5.22682">
        <ele>386</ele>
        <time>2020-09-05T19:57:44Z</time>
      </trkpt>
      <trkpt lat="45.15018" lon="5.22746">
        <ele>380</ele>
        <time>2020-09-05T20:00:50Z</time>
      </trkpt>
      <trkpt lat="45.14924" lon="5.22936">
        <ele>362</ele>
        <time>2020-09-05T20:04:29Z</time>
      </trkpt>
      <trkpt lat="45.14765" lon="5.22885">
        <ele>349</ele>
        <time>2020-09-05T20:08:06Z</time>
      </trkpt>
      <trkpt lat="45.14669" lon="5.2277">
        <ele>331</ele>
        <time>2020-09-05T20:10:54Z</time>
      </trkpt>
      <trkpt lat="45.1447" lon="5.22817">
        <ele>321</ele>
        <time>2020-09-05T20:15:23Z</time>
      </trkpt>
      <trkpt lat="45.1416" lon="5.22898">
        <ele>310</ele>
        <time>2020-09-05T20:22:24Z</time>
      </trkpt>
      <trkpt lat="45.13975" lon="5.23133">
        <ele>301</ele>
        <time>2020-09-05T20:27:55Z</time>
      </trkpt>
      <trkpt lat="45.13305" lon="5.22838">
        <ele>277</ele>
        <time>2020-09-05T20:43:31Z</time>
      </trkpt>
      <trkpt lat="45.13181" lon="5.23049">
        <ele>300</ele>
        <time>2020-09-05T20:47:50Z</time>
      </trkpt>
      <trkpt lat="45.13243" lon="5.23263">
        <ele>313</ele>
        <time>2020-09-05T20:51:28Z</time>
      </trkpt>
      <trkpt lat="45.12993" lon="5.23262">
        <ele>337</ele>
        <time>2020-09-05T20:57:01Z</time>
      </trkpt>
      <trkpt lat="45.1261" lon="5.2309">
        <ele>316</ele>
        <time>2020-09-05T21:05:57Z</time>
      </trkpt>
      <trkpt lat="45.11942" lon="5.23075">
        <ele>305</ele>
        <time>2020-09-05T21:20:49Z</time>
      </trkpt>
      <trkpt lat="45.11914" lon="5.23495">
        <ele>283</ele>
        <time>2020-09-05T21:27:26Z</time>
      </trkpt>
      <trkpt lat="45.11989" lon="5.23793">
        <ele>269</ele>
        <time>2020-09-05T21:32:24Z</time>
      </trkpt>
      <trkpt lat="45.11957" lon="5.24095">
        <ele>268</ele>
        <time>2020-09-05T21:37:12Z</time>
      </trkpt>
      <trkpt lat="45.1158" lon="5.23998">
        <ele>263</ele>
        <time>2020-09-05T21:45:43Z</time>
      </trkpt>
      <trkpt lat="45.11205" lon="5.24096">
        <ele>246</ele>
        <time>2020-09-05T21:54:12Z</time>
      </trkpt>
      <trkpt lat="45.10997" lon="5.24016">
        <ele>239</ele>
        <time>2020-09-05T21:59:00Z</time>
      </trkpt>
      <trkpt lat="45.11111" lon="5.24344">
        <ele>221</ele>
        <time>2020-09-05T22:04:44Z</time>
      </trkpt>
      <trkpt lat="45.11074" lon="5.24447">
        <ele>224</ele>
        <time>2020-09-05T22:06:33Z</time>
      </trkpt>
      <trkpt lat="45.11254" lon="5.24626">
        <ele>232</ele>
        <time>2020-09-05T22:11:26Z</time>
      </trkpt>
      <trkpt lat="45.11301" lon="5.24856">
        <ele>243</ele>
        <time>2020-09-05T22:15:12Z</time>
      </trkpt>
      <trkpt lat="45.11117" lon="5.24856">
        <ele>259</ele>
        <time>2020-09-05T22:19:17Z</time>
      </trkpt>
      <trkpt lat="45.11192" lon="5.24938">
        <ele>268</ele>
        <time>2020-09-05T22:21:24Z</time>
      </trkpt>
      <trkpt lat="45.10822" lon="5.2479">
        <ele>255</ele>
        <time>2020-09-05T22:29:57Z</time>
      </trkpt>
      <trkpt lat="45.10736" lon="5.24514">
        <ele>243</ele>
        <time>2020-09-05T22:34:41Z</time>
      </trkpt>
      <trkpt lat="45.10629" lon="5.2469">
        <ele>232</ele>
        <time>2020-09-05T22:38:20Z</time>
      </trkpt>
      <trkpt lat="45.10706" lon="5.24823">
        <ele>240</ele>
        <time>2020-09-05T22:41:02Z</time>
      </trkpt>
      <trkpt lat="45.10629" lon="5.24911">
        <ele>225</ele>
        <time>2020-09-05T22:43:14Z</time>
      </trkpt>
      <trkpt lat="45.10412" lon="5.24829">
        <ele>224</ele>
        <time>2020-09-05T22:48:13Z</time>
      </trkpt>
      <trkpt lat="45.10333" lon="5.24667">
        <ele>235</ele>
        <time>2020-09-05T22:51:19Z</time>
      </trkpt>
      <trkpt lat="45.10196" lon="5.24642">
        <ele>246</ele>
        <time>2020-09-05T22:54:23Z</time>
      </trkpt>
      <trkpt lat="45.1008" lon="5.24747">
        <ele>241</ele>
        <time>2020-09-05T22:57:27Z</time>
      </trkpt>
      <trkpt lat="45.09881" lon="5.25152">
        <ele>241</ele>
        <time>2020-09-05T23:05:12Z</time>
      </trkpt>
      <trkpt lat="45.09371" lon="5.25407">
        <ele>226</ele>
        <time>2020-09-05T23:17:13Z</time>
      </trkpt>
      <trkpt lat="45.09093" lon="5.2577">
        <ele>226</ele>
        <time>2020-09-05T23:25:38Z</time>
      </trkpt>
      <trkpt lat="45.08602" lon="5.26066">
        <ele>223</ele>
        <time>2020-09-05T23:37:30Z</time>
      </trkpt>
      <trkpt lat="45.08037" lon="5.26216">
        <ele>213</ele>
        <time>2020-09-05T23:50:17Z</time>
      </trkpt>
      <trkpt lat="45.07927" lon="5.26396">
        <ele>200</ele>
        <time>2020-09-05T23:54:01Z</time>
      </trkpt>
      <trkpt lat="45.07602" lon="5.26269">
        <ele>196</ele>
        <time>2020-09-06T00:01:31Z</time>
      </trkpt>
      <trkpt lat="45.0722" lon="5.25762">
        <ele>202</ele>
        <time>2020-09-06T00:13:10Z</time>
      </trkpt>
      <trkpt lat="45.06991" lon="5.25078">
        <ele>201</ele>
        <time>2020-09-06T00:25:03Z</time>
      </trkpt>
      <trkpt lat="45.06839" lon="5.24494">
        <ele>187</ele>
        <time>2020-09-06T00:34:50Z</time>
      </trkpt>
      <trkpt lat="45.06909" lon="5.24413">
        <ele>194</ele>
        <time>2020-09-06T00:36:51Z</time>
      </trkpt>
      <trkpt lat="45.06509" lon="5.24192">
        <ele>189</ele>
        <time>2020-09-06T00:46:24Z</time>
      </trkpt>
      <trkpt lat="45.06078" lon="5.24286">
        <ele>203</ele>
        <time>2020-09-06T00:56:06Z</time>
      </trkpt>
      <trkpt lat="45.06031" lon="5.24686">
        <ele>179</ele>
        <time>2020-09-06T01:02:28Z</time>
      </trkpt>
      <trkpt lat="45.05909" lon="5.24828">
        <ele>178</ele>
        <time>2020-09-06T01:05:59Z</time>
      </trkpt>
      <trkpt lat="45.05831" lon="5.25245">
        <ele>180</ele>
        <time>2020-09-06T01:12:45Z</time>
      </trkpt>
      <trkpt lat="45.05966" lon="5.2529">
        <ele>168</ele>
        <time>2020-09-06T01:15:50Z</time>
      </trkpt>
      <trkpt lat="45.05842" lon="5.25293">
        <ele>179</ele>
        <time>2020-09-06T01:18:36Z</time>
      </trkpt>
      <trkpt lat="45.05675" lon="5.25606">
        <ele>188</ele>
        <time>2020-09-06T01:24:46Z</time>
      </trkpt>
      <trkpt lat="45.05559" lon="5.26047">
        <ele>204</ele>
        <time>2020-09-06T01:32:09Z</time>
      </trkpt>
      <trkpt lat="45.05368" lon="5.26507">
        <ele>221</ele>
        <time>2020-09-06T01:40:32Z</time>
      </trkpt>
      <trkpt lat="45.05047" lon="5.26671">
        <ele>225</ele>
        <time>2020-09-06T01:48:08Z</time>
      </trkpt>
      <trkpt lat="45.05087" lon="5.26844">
        <ele>225</ele>
        <time>2020-09-06T01:50:59Z</time>
      </trkpt>
      <trkpt lat="45.05087" lon="5.26844">
        <ele>225</ele>
        <time>2020-09-06T01:50:59Z</time>
      </trkpt>
      <trkpt lat="45.05074" lon="5.27266">
        <ele>228</ele>
        <time>2020-09-06T01:57:37Z</time>
      </trkpt>
      <trkpt lat="45.05083" lon="5.2751">
        <ele>225</ele>
        <time>2020-09-06T02:01:28Z</time>
      </trkpt>
      <trkpt lat="45.05257" lon="5.2772">
        <ele>217</ele>
        <time>2020-09-06T02:06:33Z</time>
      </trkpt>
      <trkpt lat="45.05362" lon="5.27668">
        <ele>212</ele>
        <time>2020-09-06T02:09:01Z</time>
      </trkpt>
      <trkpt lat="45.05488" lon="5.27765">
        <ele>211</ele>
        <time>2020-09-06T02:12:13Z</time>
      </trkpt>
      <trkpt lat="45.0534" lon="5.27918">
        <ele>231</ele>
        <time>2020-09-06T02:16:17Z</time>
      </trkpt>
      <trkpt lat="45.05188" lon="5.27865">
        <ele>240</ele>
        <time>2020-09-06T02:19:46Z</time>
      </trkpt>
      <trkpt lat="45.05139" lon="5.281">
        <ele>272</ele>
        <time>2020-09-06T02:23:37Z</time>
      </trkpt>
      <trkpt lat="45.05132" lon="5.28366">
        <ele>289</ele>
        <time>2020-09-06T02:27:48Z</time>
      </trkpt>
      <trkpt lat="45.0504" lon="5.28524">
        <ele>308</ele>
        <time>2020-09-06T02:31:01Z</time>
      </trkpt>
      <trkpt lat="45.04834" lon="5.28701">
        <ele>321</ele>
        <time>2020-09-06T02:36:23Z</time>
      </trkpt>
      <trkpt lat="45.04854" lon="5.2887">
        <ele>307</ele>
        <time>2020-09-06T02:39:04Z</time>
      </trkpt>
      <trkpt lat="45.04712" lon="5.29076">
        <ele>273</ele>
        <time>2020-09-06T02:43:36Z</time>
      </trkpt>
      <trkpt lat="45.04738" lon="5.29158">
        <ele>252</ele>
        <time>2020-09-06T02:45:00Z</time>
      </trkpt>
      <trkpt lat="45.04689" lon="5.29203">
        <ele>263</ele>
        <time>2020-09-06T02:46:18Z</time>
      </trkpt>
      <trkpt lat="45.04654" lon="5.29349">
        <ele>270</ele>
        <time>2020-09-06T02:48:44Z</time>
      </trkpt>
      <trkpt lat="45.04446" lon="5.29363">
        <ele>279</ele>
        <time>2020-09-06T02:53:22Z</time>
      </trkpt>
      <trkpt lat="45.04429" lon="5.2966">
        <ele>239</ele>
        <time>2020-09-06T02:58:03Z</time>
      </trkpt>
      <trkpt lat="45.04191" lon="5.29566">
        <ele>256</ele>
        <time>2020-09-06T03:03:32Z</time>
      </trkpt>
      <trkpt lat="45.04121" lon="5.29684">
        <ele>240</ele>
        <time>2020-09-06T03:05:58Z</time>
      </trkpt>
      <trkpt lat="45.04153" lon="5.30109">
        <ele>204</ele>
        <time>2020-09-06T03:12:41Z</time>
      </trkpt>
      <trkpt lat="45.0441" lon="5.30244">
        <ele>204</ele>
        <time>2020-09-06T03:18:46Z</time>
      </trkpt>
      <trkpt lat="45.04678" lon="5.30155">
        <ele>208</ele>
        <time>2020-09-06T03:24:54Z</time>
      </trkpt>
      <trkpt lat="45.04504" lon="5.30666">
        <ele>232</ele>
        <time>2020-09-06T03:33:49Z</time>
      </trkpt>
      <trkpt lat="45.0453" lon="5.30798">
        <ele>248</ele>
        <time>2020-09-06T03:35:58Z</time>
      </trkpt>
      <trkpt lat="45.04275" lon="5.30953">
        <ele>266</ele>
        <time>2020-09-06T03:42:08Z</time>
      </trkpt>
      <trkpt lat="45.03974" lon="5.30954">
        <ele>271</ele>
        <time>2020-09-06T03:48:50Z</time>
      </trkpt>
      <trkpt lat="45.03791" lon="5.3135">
        <ele>287</ele>
        <time>2020-09-06T03:56:16Z</time>
      </trkpt>
      <trkpt lat="45.03692" lon="5.31757">
        <ele>310</ele>
        <time>2020-09-06T04:03:02Z</time>
      </trkpt>
      <trkpt lat="45.03535" lon="5.31881">
        <ele>299</ele>
        <time>2020-09-06T04:07:02Z</time>
      </trkpt>
      <trkpt lat="45.0346" lon="5.31915">
        <ele>299</ele>
        <time>2020-09-06T04:08:47Z</time>
      </trkpt>
      <trkpt lat="45.0344" lon="5.32451">
        <ele>298</ele>
        <time>2020-09-06T04:17:13Z</time>
      </trkpt>
      <trkpt lat="45.03543" lon="5.32879">
        <ele>297</ele>
        <time>2020-09-06T04:24:19Z</time>
      </trkpt>
    </trkseg>
  </trk>
</gpx>